createdAt,value
2019-02-16T00:02:13.406Z,79.30
2019-02-16T00:04:42.621Z,78.90
2019-02-16T00:07:12.366Z,77.80
2019-02-16T00:09:41.428Z,76.30
2019-02-16T00:12:10.627Z,77.90
2019-02-16T00:14:41.878Z,76.10
2019-02-16T00:17:11.213Z,75.20
2019-02-16T00:19:42.407Z,75.30
2019-02-16T00:22:11.869Z,77.80
2019-02-16T00:24:40.988Z,77.80
2019-02-16T00:27:10.458Z,78.40
2019-02-16T00:29:40.544Z,74.30
2019-02-16T00:32:10.400Z,77.90
2019-02-16T00:34:39.769Z,81.50
2019-02-16T00:37:08.989Z,79.30
2019-02-16T00:39:38.189Z,79.60
2019-02-16T00:42:07.798Z,76.30
2019-02-16T00:44:37.479Z,75.90
2019-02-16T00:47:06.898Z,76.50
2019-02-16T00:49:36.548Z,77.70
2019-02-16T00:52:05.801Z,78.30
2019-02-16T00:54:35.222Z,77.30
2019-02-16T00:57:05.942Z,77.70
2019-02-16T00:59:36.374Z,76.40
2019-02-16T01:02:06.089Z,76.50
2019-02-16T01:04:36.514Z,78.10
2019-02-16T01:07:07.017Z,76.10
2019-02-16T01:09:36.627Z,76.30
2019-02-16T01:12:05.950Z,78.20
2019-02-16T01:14:35.603Z,77.90
2019-02-16T01:17:05.278Z,78.90
2019-02-16T01:19:34.963Z,77.40
2019-02-16T01:22:03.957Z,76.70
2019-02-16T01:24:35.862Z,79.50
2019-02-16T01:27:06.939Z,78.00
2019-02-16T01:29:48.707Z,76.10
2019-02-16T01:32:22.336Z,78.40
2019-02-16T01:34:55.152Z,77.80
2019-02-16T01:37:30.275Z,75.70
2019-02-16T01:40:07.932Z,77.70
2019-02-16T01:42:39.537Z,76.00
2019-02-16T01:45:11.204Z,76.90
2019-02-16T01:47:45.267Z,75.80
2019-02-16T01:50:14.354Z,76.00
2019-02-16T01:52:56.278Z,74.60
2019-02-16T01:55:30.605Z,75.70
2019-02-16T01:58:00.138Z,78.80
2019-02-16T02:00:29.611Z,80.50
2019-02-16T02:02:59.676Z,76.90
2019-02-16T02:05:30.853Z,78.20
2019-02-16T02:08:02.759Z,77.10
2019-02-16T02:10:32.888Z,76.70
2019-02-16T02:13:04.586Z,76.60
2019-02-16T02:15:34.454Z,74.40
2019-02-16T02:18:04.344Z,76.30
2019-02-16T02:20:36.968Z,75.00
2019-02-16T02:23:11.069Z,76.40
2019-02-16T02:25:40.375Z,76.20
2019-02-16T02:28:09.793Z,75.40
2019-02-16T02:30:42.043Z,76.40
2019-02-16T02:33:11.046Z,75.10
2019-02-16T02:35:40.206Z,75.50
2019-02-16T02:38:10.135Z,74.60
2019-02-16T02:40:39.340Z,77.20
2019-02-16T02:43:08.237Z,77.00
2019-02-16T02:45:37.610Z,78.00
2019-02-16T02:48:08.385Z,79.10
2019-02-16T02:50:37.401Z,77.40
2019-02-16T02:53:07.058Z,77.40
2019-02-16T02:55:44.353Z,78.30
2019-02-16T02:58:14.197Z,76.20
2019-02-16T03:00:43.354Z,76.20
2019-02-16T03:03:13.062Z,78.00
2019-02-16T03:05:43.745Z,79.40
2019-02-16T03:08:13.317Z,78.00
2019-02-16T03:10:43.011Z,77.70
2019-02-16T03:13:13.141Z,76.70
2019-02-16T03:15:42.256Z,78.70
2019-02-16T03:18:12.593Z,77.20
2019-02-16T03:20:41.774Z,78.60
2019-02-16T03:23:18.561Z,77.60
2019-02-16T03:26:09.043Z,76.00
2019-02-16T03:29:18.676Z,78.70
2019-02-16T03:32:20.064Z,79.10
2019-02-16T03:35:29.546Z,79.20
2019-02-16T03:38:40.740Z,76.50
2019-02-16T03:41:12.860Z,77.30
2019-02-16T03:43:42.199Z,77.60
2019-02-16T03:46:12.034Z,77.80
2019-02-16T03:48:41.325Z,77.60
2019-02-16T03:51:10.368Z,78.10
2019-02-16T03:53:39.587Z,80.00
2019-02-16T03:56:08.608Z,80.10
2019-02-16T03:58:38.224Z,80.40
2019-02-16T04:01:07.535Z,81.00
2019-02-16T04:03:37.085Z,82.10
2019-02-16T04:06:06.814Z,80.90
2019-02-16T04:08:35.936Z,82.10
2019-02-16T04:11:05.481Z,82.80
2019-02-16T04:13:34.939Z,79.30
2019-02-16T04:16:04.468Z,83.10
2019-02-16T04:18:35.090Z,83.70
2019-02-16T04:21:05.217Z,81.40
2019-02-16T04:23:34.556Z,82.80
2019-02-16T04:26:08.029Z,84.60
2019-02-16T04:28:37.102Z,84.40
2019-02-16T04:31:06.743Z,82.70
2019-02-16T04:33:36.279Z,81.40
2019-02-16T04:36:05.943Z,80.80
2019-02-16T04:38:34.981Z,80.80
2019-02-16T04:41:06.399Z,80.90
2019-02-16T04:43:36.114Z,78.50
2019-02-16T04:46:05.699Z,78.40
2019-02-16T04:48:35.289Z,81.30
2019-02-16T04:51:06.159Z,80.90
2019-02-16T04:53:35.284Z,82.00
2019-02-16T04:56:04.599Z,80.90
2019-02-16T04:58:34.011Z,82.10
2019-02-16T05:01:03.858Z,83.30
2019-02-16T05:03:33.016Z,80.10
2019-02-16T05:06:02.520Z,79.10
2019-02-16T05:08:31.887Z,78.60
2019-02-16T05:11:01.396Z,80.00
2019-02-16T05:13:30.762Z,78.20
2019-02-16T05:16:00.245Z,78.80
2019-02-16T05:18:30.359Z,80.90
2019-02-16T05:21:01.497Z,81.10
2019-02-16T05:23:32.465Z,80.00
2019-02-16T05:26:03.163Z,80.60
2019-02-16T05:28:32.593Z,80.10
2019-02-16T05:31:02.257Z,80.50
2019-02-16T05:33:33.399Z,81.70
2019-02-16T05:36:03.015Z,80.60
2019-02-16T05:38:33.062Z,82.70
2019-02-16T05:41:02.752Z,82.00
2019-02-16T05:43:32.517Z,81.80
2019-02-16T05:46:02.502Z,80.60
2019-02-16T05:48:32.291Z,81.30
2019-02-16T05:51:01.533Z,82.10
2019-02-16T05:53:31.203Z,80.60
2019-02-16T05:56:01.660Z,80.60
2019-02-16T05:58:30.611Z,82.30
2019-02-16T06:01:00.429Z,82.60
2019-02-16T06:03:29.898Z,81.20
2019-02-16T06:05:59.171Z,79.60
2019-02-16T06:08:28.506Z,80.00
2019-02-16T06:10:59.169Z,80.70
2019-02-16T06:13:28.394Z,81.30
2019-02-16T06:15:57.431Z,78.10
2019-02-16T06:18:26.674Z,75.50
2019-02-16T06:20:56.207Z,75.40
2019-02-16T06:23:25.695Z,78.70
2019-02-16T06:25:55.646Z,78.60
2019-02-16T06:28:25.221Z,78.20
2019-02-16T06:30:54.610Z,74.40
2019-02-16T06:33:23.962Z,74.30
2019-02-16T06:36:02.599Z,76.60
2019-02-16T06:38:32.667Z,77.90
2019-02-16T06:41:02.352Z,79.20
2019-02-16T06:43:31.752Z,77.40
2019-02-16T06:46:01.388Z,76.10
2019-02-16T06:48:30.884Z,76.30
2019-02-16T06:51:00.760Z,75.50
2019-02-16T06:53:30.533Z,75.80
2019-02-16T06:56:03.860Z,75.70
2019-02-16T06:58:33.290Z,78.00
2019-02-16T07:01:03.320Z,79.60
2019-02-16T07:03:35.202Z,78.40
2019-02-16T07:06:04.485Z,75.70
2019-02-16T07:08:33.708Z,76.90
2019-02-16T07:11:03.086Z,76.20
2019-02-16T07:13:35.107Z,75.50
2019-02-16T07:16:32.410Z,75.20
2019-02-16T07:19:10.910Z,76.60
2019-02-16T07:21:40.249Z,79.60
2019-02-16T07:24:09.502Z,76.00
2019-02-16T07:26:38.874Z,75.60
2019-02-16T07:29:07.898Z,75.50
2019-02-16T07:31:37.895Z,76.20
2019-02-16T07:34:07.780Z,75.40
2019-02-16T07:36:37.722Z,76.00
2019-02-16T07:39:07.843Z,73.40
2019-02-16T07:41:36.966Z,73.40
2019-02-16T07:44:23.965Z,72.60
2019-02-16T07:47:09.081Z,73.20
2019-02-16T07:49:45.985Z,73.40
2019-02-16T07:52:26.307Z,73.80
2019-02-16T07:54:59.581Z,73.00
2019-02-16T07:57:43.242Z,71.90
2019-02-16T08:00:24.719Z,72.50
2019-02-16T08:03:08.426Z,72.70
2019-02-16T08:06:06.716Z,71.90
2019-02-16T08:09:10.461Z,74.50
2019-02-16T08:12:01.306Z,77.00
2019-02-16T08:14:58.945Z,77.00
2019-02-16T08:17:36.557Z,77.80
2019-02-16T08:20:28.548Z,73.70
2019-02-16T08:23:04.153Z,71.30
2019-02-16T08:25:55.505Z,71.40
2019-02-16T08:28:44.083Z,72.90
2019-02-16T08:31:26.923Z,72.50
2019-02-16T08:34:09.733Z,71.10
2019-02-16T08:37:13.524Z,72.70
2019-02-16T08:40:36.017Z,69.00
2019-02-16T08:47:22.200Z,67.00
2019-02-16T08:54:21.053Z,58.80
2019-02-16T08:56:56.824Z,53.70
2019-02-16T09:15:12.588Z,43.70
2019-02-16T09:17:53.792Z,45.00
2019-02-16T09:20:36.217Z,42.90
2019-02-16T09:23:42.057Z,39.70
2019-02-16T09:37:59.786Z,32.10
2019-02-16T09:40:48.406Z,40.00
2019-02-16T09:43:28.878Z,32.90
2019-02-16T09:46:13.425Z,31.80
2019-02-16T09:48:51.445Z,32.30
2019-02-16T09:51:31.121Z,31.00
2019-02-16T09:54:17.354Z,30.20
2019-02-16T09:56:55.501Z,29.70
2019-02-16T09:59:37.836Z,28.20
2019-02-16T10:02:29.349Z,28.40
2019-02-16T10:05:30.149Z,30.00
2019-02-16T10:08:21.579Z,26.90
2019-02-16T10:11:08.903Z,22.50
2019-02-16T10:13:56.519Z,35.60
2019-02-16T10:16:38.050Z,33.80
2019-02-16T10:19:32.632Z,29.40
2019-02-16T10:22:19.972Z,26.30
2019-02-16T10:25:12.948Z,31.60
2019-02-16T10:28:01.630Z,24.10
2019-02-16T10:30:40.494Z,24.60
2019-02-16T10:33:34.589Z,36.80
2019-02-16T10:36:23.284Z,33.20
2019-02-16T10:39:14.631Z,35.90
2019-02-16T10:41:53.694Z,32.10
2019-02-16T10:44:43.939Z,39.20
2019-02-16T10:47:36.165Z,66.40
2019-02-16T10:50:20.237Z,52.30
2019-02-16T10:53:08.786Z,54.00
2019-02-16T10:56:00.815Z,63.60
2019-02-16T10:59:01.549Z,67.40
2019-02-16T11:01:59.448Z,73.40
2019-02-16T11:04:56.927Z,86.30
2019-02-16T11:07:39.521Z,90.50
2019-02-16T11:10:24.570Z,62.50
2019-02-16T11:13:13.071Z,51.50
2019-02-16T11:16:01.855Z,72.60
2019-02-16T11:18:51.224Z,66.90
2019-02-16T11:21:59.441Z,73.40
2019-02-16T11:24:47.555Z,72.60
2019-02-16T11:27:40.607Z,74.90
2019-02-16T11:30:17.352Z,48.10
2019-02-16T11:33:13.564Z,73.10
2019-02-16T11:36:08.323Z,76.00
2019-02-16T11:39:03.490Z,79.40
2019-02-16T11:41:54.824Z,52.50
2019-02-16T11:44:31.546Z,64.80
2019-02-16T11:47:20.837Z,74.90
2019-02-16T11:50:07.178Z,62.70
2019-02-16T11:52:54.781Z,70.60
2019-02-16T11:55:52.030Z,52.70
2019-02-16T11:58:39.632Z,47.50
2019-02-16T12:02:01.773Z,70.40
2019-02-16T12:04:58.042Z,71.20
2019-02-16T12:07:39.228Z,68.50
2019-02-16T12:10:27.841Z,64.10
2019-02-16T12:13:24.078Z,65.30
2019-02-16T12:16:05.594Z,50.00
2019-02-16T12:18:57.491Z,49.50
2019-02-16T12:21:49.434Z,58.10
2019-02-16T12:24:43.470Z,49.30
2019-02-16T12:27:47.175Z,60.30
2019-02-16T12:30:34.641Z,64.70
2019-02-16T12:33:23.347Z,50.60
2019-02-16T12:36:15.060Z,37.60
2019-02-16T12:39:05.119Z,53.30
2019-02-16T12:41:48.092Z,47.60
2019-02-16T12:44:54.411Z,37.30
2019-02-16T12:47:43.565Z,56.10
2019-02-16T12:53:52.133Z,43.10
2019-02-16T12:56:50.283Z,47.90
2019-02-16T12:59:44.764Z,43.70
2019-02-16T13:02:32.162Z,45.50
2019-02-16T13:05:21.843Z,38.40
2019-02-16T13:08:10.920Z,53.70
2019-02-16T13:10:48.954Z,53.10
2019-02-16T13:13:42.993Z,55.90
2019-02-16T13:16:32.763Z,51.40
2019-02-16T13:19:23.063Z,58.10
2019-02-16T13:22:09.855Z,59.30
2019-02-16T13:24:51.776Z,58.10
2019-02-16T13:27:40.367Z,54.80
2019-02-16T13:30:25.328Z,50.70
2019-02-16T13:33:14.895Z,56.30
2019-02-16T13:36:03.057Z,38.80
2019-02-16T13:39:05.867Z,36.90
2019-02-16T13:41:59.999Z,54.20
2019-02-16T13:44:52.812Z,48.10
2019-02-16T13:47:40.359Z,53.40
2019-02-16T13:51:05.733Z,41.30
2019-02-16T13:53:42.509Z,43.40
2019-02-16T13:56:29.928Z,53.70
2019-02-16T13:59:11.399Z,42.90
2019-02-16T14:03:09.172Z,44.90
2019-02-16T14:09:12.965Z,42.50
2019-02-16T14:12:14.534Z,43.60
2019-02-16T14:14:53.673Z,41.00
2019-02-16T14:17:41.724Z,48.00
2019-02-16T14:20:10.748Z,38.70
2019-02-16T14:22:40.448Z,47.70
2019-02-16T14:25:13.594Z,35.70
2019-02-16T14:27:44.523Z,56.20
2019-02-16T14:30:14.353Z,42.20
2019-02-16T14:32:44.895Z,57.80
2019-02-16T14:35:14.058Z,62.70
2019-02-16T14:37:50.735Z,57.70
2019-02-16T14:40:20.908Z,53.70
2019-02-16T14:42:50.704Z,51.40
2019-02-16T14:45:20.616Z,51.60
2019-02-16T14:47:51.956Z,58.10
2019-02-16T14:50:22.027Z,58.10
2019-02-16T14:52:54.114Z,56.80
2019-02-16T14:55:24.332Z,53.30
2019-02-16T14:57:57.540Z,57.70
2019-02-16T15:00:27.715Z,58.50
2019-02-16T15:03:00.902Z,49.50
2019-02-16T15:05:30.332Z,50.90
2019-02-16T15:08:02.358Z,37.90
2019-02-16T15:10:35.460Z,40.60
2019-02-16T15:13:08.584Z,53.40
2019-02-16T15:15:38.609Z,44.40
2019-02-16T15:18:08.681Z,50.90
2019-02-16T15:20:38.850Z,52.50
2019-02-16T15:23:10.614Z,58.60
2019-02-16T15:25:41.961Z,61.30
2019-02-16T15:28:13.049Z,65.10
2019-02-16T15:30:44.377Z,49.00
2019-02-16T15:33:14.322Z,47.70
2019-02-16T15:35:44.578Z,57.70
2019-02-16T15:38:14.676Z,48.20
2019-02-16T15:40:45.522Z,49.40
2019-02-16T15:43:16.662Z,57.10
2019-02-16T15:45:46.984Z,60.90
2019-02-16T15:48:17.286Z,62.80
2019-02-16T15:50:48.079Z,53.60
2019-02-16T15:53:17.962Z,62.00
2019-02-16T15:55:50.102Z,63.70
2019-02-16T15:58:20.988Z,65.30
2019-02-16T16:00:51.592Z,60.70
2019-02-16T16:03:22.177Z,54.30
2019-02-16T16:05:52.000Z,57.30
2019-02-16T16:08:39.951Z,62.20
2019-02-16T16:11:18.467Z,60.90
2019-02-16T16:14:16.395Z,58.60
2019-02-16T16:16:55.625Z,61.80
2019-02-16T16:19:35.559Z,53.10
2019-02-16T16:22:28.755Z,54.00
2019-02-16T16:25:30.056Z,51.20
2019-02-16T16:28:22.815Z,60.80
2019-02-16T16:31:01.014Z,63.60
2019-02-16T16:33:59.400Z,60.30
2019-02-16T16:36:48.319Z,62.60
2019-02-16T16:39:25.299Z,63.00
2019-02-16T16:42:08.502Z,64.30
2019-02-16T16:44:44.801Z,66.40
2019-02-16T16:47:31.505Z,66.30
2019-02-16T16:50:18.690Z,58.60
2019-02-16T16:53:05.691Z,62.90
2019-02-16T16:55:56.855Z,64.30
2019-02-16T16:58:39.327Z,64.90
2019-02-16T17:01:26.582Z,71.00
2019-02-16T17:04:19.413Z,71.50
2019-02-16T17:07:26.503Z,70.60
2019-02-16T17:10:18.975Z,70.80
2019-02-16T17:13:17.088Z,72.30
2019-02-16T17:16:04.051Z,71.00
2019-02-16T17:19:09.741Z,72.60
2019-02-16T17:22:10.977Z,73.80
2019-02-16T17:24:52.200Z,72.80
2019-02-16T17:27:33.086Z,74.10
2019-02-16T17:30:17.830Z,75.50
2019-02-16T17:33:12.303Z,77.20
2019-02-16T17:36:02.261Z,77.50
2019-02-16T17:38:41.077Z,75.60
2019-02-16T17:41:26.168Z,76.30
2019-02-16T17:44:17.876Z,75.90
2019-02-16T17:47:09.434Z,76.60
2019-02-16T17:49:58.469Z,76.10
2019-02-16T17:52:54.041Z,76.60
2019-02-16T17:55:51.316Z,78.00
2019-02-16T17:58:31.260Z,73.60
2019-02-16T18:01:21.561Z,76.00
2019-02-16T18:04:03.281Z,76.70
2019-02-16T18:06:42.264Z,76.60
2019-02-16T18:09:30.741Z,73.90
2019-02-16T18:12:37.666Z,74.30
2019-02-16T18:15:29.480Z,73.80
2019-02-16T18:18:14.428Z,72.60
2019-02-16T18:21:06.534Z,74.70
2019-02-16T18:23:57.450Z,74.90
2019-02-16T18:26:45.892Z,75.80
2019-02-16T18:29:28.848Z,73.90
2019-02-16T18:32:35.941Z,78.90
2019-02-16T18:35:24.209Z,72.50
2019-02-16T18:38:16.085Z,74.70
2019-02-16T18:41:20.439Z,76.00
2019-02-16T18:44:14.635Z,74.10
2019-02-16T18:47:07.331Z,76.20
2019-02-16T18:50:01.599Z,75.60
2019-02-16T18:52:59.271Z,71.80
2019-02-16T18:55:44.757Z,67.80
2019-02-16T18:58:42.658Z,74.80
2019-02-16T19:01:31.009Z,78.30
2019-02-16T19:04:19.569Z,76.00
2019-02-16T19:06:58.667Z,73.80
2019-02-16T19:09:50.179Z,69.70
2019-02-16T19:12:37.201Z,72.60
2019-02-16T19:15:33.921Z,73.90
2019-02-16T19:18:13.305Z,76.40
2019-02-16T19:21:05.430Z,73.10
2019-02-16T19:23:49.161Z,73.50
2019-02-16T19:26:40.830Z,74.70
2019-02-16T19:29:42.025Z,76.50
2019-02-16T19:32:23.069Z,71.20
2019-02-16T19:35:14.604Z,74.00
2019-02-16T19:38:15.226Z,76.00
2019-02-16T19:41:10.500Z,74.50
2019-02-16T19:44:02.889Z,72.70
2019-02-16T19:46:52.673Z,73.50
2019-02-16T19:49:42.059Z,73.00
2019-02-16T19:52:33.615Z,68.50
2019-02-16T19:55:22.454Z,69.50
2019-02-16T19:58:05.871Z,69.30
2019-02-16T20:00:53.182Z,63.50
2019-02-16T20:03:38.637Z,65.00
2019-02-16T20:06:36.080Z,60.70
2019-02-16T20:09:25.321Z,66.10
2019-02-16T20:12:25.822Z,66.80
2019-02-16T20:15:24.305Z,63.70
2019-02-16T20:18:26.414Z,65.30
2019-02-16T20:21:15.107Z,61.00
2019-02-16T20:24:26.816Z,62.10
2019-02-16T20:27:20.844Z,68.40
2019-02-16T20:30:18.189Z,64.00
2019-02-16T20:33:19.621Z,64.40
2019-02-16T20:36:08.654Z,63.20
2019-02-16T20:38:57.479Z,73.20
2019-02-16T20:41:34.684Z,66.90
2019-02-16T20:44:42.223Z,68.20
2019-02-16T20:47:25.122Z,62.40
2019-02-16T20:50:13.393Z,69.60
2019-02-16T20:52:57.333Z,68.10
2019-02-16T20:55:43.582Z,67.40
2019-02-16T20:58:26.498Z,71.30
2019-02-16T21:01:23.685Z,67.60
2019-02-16T21:04:07.259Z,62.30
2019-02-16T21:06:56.359Z,63.80
2019-02-16T21:09:35.734Z,65.10
2019-02-16T21:12:23.935Z,66.00
2019-02-16T21:15:15.390Z,63.60
2019-02-16T21:18:11.691Z,62.40
2019-02-16T21:21:09.710Z,58.70
2019-02-16T21:23:58.717Z,60.90
2019-02-16T21:26:39.871Z,58.90
2019-02-16T21:29:32.269Z,65.20
2019-02-16T21:32:30.815Z,64.70
2019-02-16T21:35:17.856Z,62.20
2019-02-16T21:38:22.157Z,64.30
2019-02-16T21:41:07.661Z,64.00
2019-02-16T21:43:44.918Z,65.30
2019-02-16T21:46:33.192Z,64.30
2019-02-16T21:49:21.775Z,60.70
2019-02-16T21:52:01.747Z,58.90
2019-02-16T21:55:00.505Z,59.90
2019-02-16T21:58:08.167Z,60.50
2019-02-16T22:00:51.921Z,62.30
2019-02-16T22:03:39.115Z,61.10
2019-02-16T22:06:27.940Z,59.50
2019-02-16T22:09:16.027Z,62.60
2019-02-16T22:12:04.991Z,57.60
2019-02-16T22:14:37.792Z,58.40
2019-02-16T22:17:07.144Z,57.20
2019-02-16T22:19:36.451Z,56.20
2019-02-16T22:22:14.711Z,61.70
2019-02-16T22:24:43.972Z,62.90
2019-02-16T22:27:13.930Z,63.00
2019-02-16T22:29:44.255Z,63.00
2019-02-16T22:32:13.648Z,62.10
2019-02-16T22:34:44.655Z,58.10
2019-02-16T22:37:14.139Z,56.20
2019-02-16T22:39:43.995Z,62.20
2019-02-16T22:42:13.928Z,62.70
2019-02-16T22:44:45.590Z,65.90
2019-02-16T22:47:16.449Z,62.80
2019-02-16T22:49:49.347Z,58.50
2019-02-16T22:52:19.076Z,62.80
2019-02-16T22:54:48.836Z,61.20
2019-02-16T22:57:22.060Z,63.50
2019-02-16T22:59:52.543Z,67.80
2019-02-16T23:02:22.447Z,63.80
2019-02-16T23:04:52.182Z,67.20
2019-02-16T23:07:21.893Z,63.90
2019-02-16T23:09:51.399Z,61.00
2019-02-16T23:12:21.350Z,60.80
2019-02-16T23:14:51.665Z,60.40
2019-02-16T23:17:22.639Z,61.80
2019-02-16T23:19:52.489Z,61.70
2019-02-16T23:22:22.339Z,60.40
2019-02-16T23:24:51.849Z,64.40
2019-02-16T23:27:21.602Z,61.50
2019-02-16T23:29:51.590Z,65.20
2019-02-16T23:32:21.631Z,68.40
2019-02-16T23:34:52.010Z,68.30
2019-02-16T23:37:24.427Z,67.30
2019-02-16T23:39:54.084Z,65.40
2019-02-16T23:42:23.238Z,65.80
2019-02-16T23:44:52.953Z,68.80
2019-02-16T23:47:22.888Z,70.50
2019-02-16T23:49:52.654Z,71.50
2019-02-16T23:52:25.120Z,67.00
2019-02-16T23:54:56.699Z,66.10
2019-02-16T23:57:28.053Z,66.10
2019-02-16T23:59:58.159Z,65.70
